Time;durP1;ratioP1;P1;durP2;ratioP2;P2;SDS_P1;SDS_P2;PMS_P1;PMS_P2;Temp;Humidity;BMP_temperature;BMP_pressure;BME280_temperature;BME280_humidity;BME280_pressure;Samples;Min_cycle;Max_cycle;Signal;HPM_P1;HPM_P2
2023/03/11 18:21:27;;;;;;;3.78;1.48;;;1.30;99.90;;;1.50;80.61;100258.56;5058942;28;20404;-76
2023/03/11 18:23:55;;;;;;;4.20;1.52;;;1.10;99.90;;;1.66;77.90;100241.59;5044115;28;22930;-77
2023/03/11 18:26:23;;;;;;;5.15;1.70;;;1.10;99.90;;;1.67;76.64;100260.22;5045592;28;20045;-76
2023/03/11 18:28:53;;;;;;;;;;;1.10;99.90;;;1.67;77.50;100259.41;5042755;28;20378;-78
2023/03/11 18:31:24;;;;;;;9.00;1.70;;;1.10;99.90;;;1.60;78.05;100263.78;5044463;28;19917;-78
2023/03/11 18:34:01;;;;;;;4.20;1.50;;;1.10;99.90;;;1.59;77.89;100260.25;5040143;28;20056;-78
2023/03/11 18:36:31;;;;;;;5.88;1.40;;;1.00;99.90;;;1.49;78.36;100273.84;5044596;28;20037;-78
2023/03/11 18:38:59;;;;;;;3.10;1.30;;;1.00;99.90;;;1.45;78.94;100269.81;5048575;28;20033;-77
2023/03/11 18:41:29;;;;;;;6.10;1.70;;;1.00;99.90;;;1.45;78.83;100275.19;5044819;28;20053;-77
2023/03/11 18:43:56;;;;;;;4.07;1.30;;;0.90;99.90;;;1.29;80.00;100259.88;5046179;28;20033;-77
2023/03/11 18:46:25;;;;;;;6.78;1.42;;;0.80;99.90;;;1.24;80.25;100264.91;5043055;28;20397;-78
2023/03/11 18:48:56;;;;;;;6.93;2.20;;;0.80;99.90;;;1.16;81.09;100271.09;5041843;28;20508;-77
2023/03/11 18:51:23;;;;;;;5.00;1.48;;;0.70;99.90;;;1.12;82.54;100272.44;5038724;28;20122;-77
2023/03/11 18:53:48;;;;;;;7.20;1.48;;;0.60;99.90;;;1.06;82.12;100267.69;5042601;28;20357;-78
2023/03/11 18:56:16;;;;;;;4.35;1.63;;;0.60;99.90;;;1.07;82.31;100272.91;5040757;28;20041;-77
2023/03/11 18:58:42;;;;;;;4.43;1.55;;;0.60;99.90;;;0.97;82.01;100261.50;5041145;28;20030;-77
2023/03/11 19:01:16;;;;;;;5.45;1.50;;;0.50;99.90;;;1.09;80.65;100264.72;5044845;28;20037;-77
2023/03/11 19:03:44;;;;;;;4.65;1.55;;;0.60;99.90;;;1.09;80.17;100262.03;5040452;28;20100;-77
2023/03/11 19:06:11;;;;;;;;;;;0.60;99.90;;;1.03;80.65;100255.44;5043895;28;20068;-78
2023/03/11 19:08:38;;;;;;;3.38;1.23;;;0.60;99.90;;;1.06;80.07;100265.88;5043676;28;20068;-79
2023/03/11 19:11:08;;;;;;;4.75;1.60;;;0.60;99.90;;;1.07;78.82;100262.19;5039735;28;20048;-78
2023/03/11 19:13:35;;;;;;;5.72;1.67;;;0.60;99.90;;;1.05;79.23;100250.75;5048017;28;20038;-78
2023/03/11 19:16:01;;;;;;;5.43;1.57;;;0.70;99.90;;;0.99;79.36;100243.34;5040862;28;20043;-78
2023/03/11 19:18:27;;;;;;;6.53;1.70;;;0.60;99.90;;;0.98;79.52;100253.25;5035935;28;20305;-78
2023/03/11 19:20:58;;;;;;;5.18;1.30;;;0.60;99.90;;;0.97;79.44;100251.56;5039450;28;20068;-77
2023/03/11 19:23:25;;;;;;;3.50;1.38;;;0.60;99.90;;;0.91;79.11;100251.38;5043193;28;20037;-77
2023/03/11 19:25:51;;;;;;;3.13;1.50;;;0.50;99.90;;;0.88;79.71;100255.25;5054139;28;20124;-79
2023/03/11 19:28:18;;;;;;;3.65;1.30;;;0.50;99.90;;;0.89;79.17;100262.28;5041503;28;20037;-80
2023/03/11 19:30:44;;;;;;;5.88;1.88;;;0.50;99.90;;;0.89;79.59;100262.28;5037291;28;20041;-78
2023/03/11 19:33:10;;;;;;;2.45;1.15;;;0.40;99.90;;;0.93;78.66;100260.97;5030459;28;20140;-79
2023/03/11 19:35:36;;;;;;;5.10;1.98;;;0.50;99.90;;;0.97;78.17;100265.00;5029794;28;20033;-79
2023/03/11 19:38:01;;;;;;;5.28;1.70;;;0.40;99.90;;;1.05;78.08;100255.28;5026844;28;20137;-78
2023/03/11 19:40:29;;;;;;;4.90;1.52;;;0.40;99.90;;;0.96;77.61;100259.81;5029308;28;20176;-78
2023/03/11 19:42:58;;;;;;;4.77;1.73;;;0.40;99.90;;;0.94;78.16;100265.34;5027504;28;20052;-78
2023/03/11 19:45:25;;;;;;;4.47;1.52;;;0.30;99.90;;;0.84;78.90;100265.47;5029087;28;20178;-79
2023/03/11 19:47:51;;;;;;;4.55;1.52;;;0.40;99.90;;;0.80;78.50;100274.84;5029138;28;20099;-78
2023/03/11 19:50:18;;;;;;;4.75;1.48;;;0.30;99.90;;;0.79;77.60;100277.69;5041303;28;20037;-78
2023/03/11 19:52:44;;;;;;;2.67;1.48;;;0.30;99.90;;;0.86;77.01;100270.69;5029310;28;20037;-79
2023/03/11 19:55:10;;;;;;;3.40;1.50;;;0.40;99.90;;;0.82;77.29;100269.34;5029259;28;20444;-79
2023/03/11 19:57:36;;;;;;;5.22;1.80;;;0.40;99.90;;;0.89;77.13;100278.41;5028576;28;20021;-79
2023/03/11 20:00:03;;;;;;;3.55;1.77;;;0.40;99.90;;;0.91;76.79;100273.72;5025354;28;20516;-77
2023/03/11 20:02:30;;;;;;;6.03;1.80;;;0.40;99.90;;;0.93;77.42;100287.81;5020789;28;20448;-78
2023/03/11 20:04:56;;;;;;;7.00;1.80;;;0.40;99.90;;;0.76;79.20;100280.69;5023712;28;20041;-80
2023/03/11 20:07:22;;;;;;;8.38;1.90;;;0.40;99.90;;;0.76;79.89;100292.28;5030910;28;20042;-78
2023/03/11 20:09:48;;;;;;;8.30;2.63;;;0.30;99.90;;;0.68;81.46;100297.63;5028950;28;20041;-77
2023/03/11 20:12:14;;;;;;;5.43;2.22;;;0.30;99.90;;;0.61;82.22;100297.44;5026961;28;20037;-80
2023/03/11 20:14:41;;;;;;;5.55;2.00;;;0.20;99.90;;;0.50;83.72;100284.28;5026115;28;20054;-83
2023/03/11 20:17:07;;;;;;;4.78;2.35;;;0.10;99.90;;;0.46;84.62;100297.19;5029277;28;20037;-78
2023/03/11 20:19:34;;;;;;;5.88;2.03;;;0.00;99.90;;;0.41;84.00;100289.59;5029000;28;20452;-80
2023/03/11 20:22:00;;;;;;;6.00;2.20;;;0.00;99.90;;;0.41;84.80;100288.78;5029305;28;20107;-79
2023/03/11 20:24:26;;;;;;;5.25;2.05;;;0.00;99.90;;;0.35;84.81;100273.28;5020978;28;20041;-77
2023/03/11 20:26:51;;;;;;;6.60;2.25;;;-0.10;99.90;;;0.35;85.04;100287.56;5028768;28;20041;-77
2023/03/11 20:29:18;;;;;;;6.63;2.65;;;-0.10;99.90;;;0.37;85.24;100285.56;5027446;28;20374;-79
2023/03/11 20:31:43;;;;;;;4.97;1.80;;;0.00;99.90;;;0.43;84.62;100284.09;5027515;28;20033;-79
2023/03/11 20:34:10;;;;;;;6.15;2.38;;;-0.10;99.90;;;0.39;84.72;100294.28;5028804;28;20041;-78
2023/03/11 20:36:36;;;;;;;5.97;2.30;;;-0.10;99.90;;;0.40;84.76;100287.91;5028849;28;20056;-80
2023/03/11 20:39:04;;;;;;;6.25;2.25;;;-0.10;99.90;;;0.48;83.60;100297.88;5032257;28;20847;-79
2023/03/11 20:41:36;;;;;;;;;;;0.00;99.90;;;0.51;83.31;100302.06;5031513;28;20037;-79
2023/03/11 20:44:04;;;;;;;4.20;2.22;;;0.10;99.90;;;0.47;82.59;100304.25;5027761;28;19917;-78
2023/03/11 20:46:30;;;;;;;4.20;1.90;;;0.10;99.90;;;0.42;83.15;100285.91;5028710;28;20048;-79
2023/03/11 20:48:56;;;;;;;3.47;1.98;;;0.10;99.90;;;0.38;83.00;100281.88;5025933;28;20045;-77
2023/03/11 20:51:23;;;;;;;3.55;1.83;;;0.10;99.90;;;0.40;83.82;100304.03;5029836;28;20143;-79
2023/03/11 20:53:50;;;;;;;5.78;2.08;;;0.10;99.90;;;0.39;84.04;100307.72;5030002;28;20962;-79
2023/03/11 20:56:20;;;;;;;8.10;2.80;;;0.00;99.90;;;0.36;84.08;100297.28;5030567;28;20041;-78
2023/03/11 20:58:49;;;;;;;5.95;1.92;;;0.00;99.90;;;0.35;83.27;100300.13;5030356;28;20037;-78
2023/03/11 21:01:29;;;;;;;6.40;2.03;;;0.00;99.90;;;0.33;83.26;100292.25;5029698;28;20606;-79
2023/03/11 21:03:59;;;;;;;6.82;2.28;;;0.00;99.90;;;0.36;82.66;100293.75;5029798;28;20036;-78
2023/03/11 21:06:37;;;;;;;4.88;2.28;;;0.00;99.90;;;0.38;82.50;100306.03;5027212;28;20041;-78
2023/03/11 21:09:06;;;;;;;7.73;2.13;;;0.00;99.90;;;0.39;82.08;100296.97;5031762;28;20036;-79
2023/03/11 21:11:33;;;;;;;7.20;2.28;;;0.00;99.90;;;0.36;82.28;100302.66;5027154;28;20045;-79
2023/03/11 21:13:59;;;;;;;6.07;2.20;;;0.00;99.90;;;0.31;82.26;100299.63;5027530;28;20508;-80
2023/03/11 21:16:25;;;;;;;4.95;2.05;;;0.00;99.90;;;0.35;83.03;100294.75;5028716;28;20294;-79
2023/03/11 21:18:51;;;;;;;4.80;1.70;;;0.00;99.90;;;0.36;82.36;100294.63;5029130;28;20183;-79
2023/03/11 21:21:17;;;;;;;6.60;2.28;;;0.00;99.90;;;0.31;81.64;100291.56;5030246;28;20547;-79
2023/03/11 21:23:44;;;;;;;5.47;2.38;;;0.00;99.90;;;0.36;81.47;100301.81;5029975;28;20025;-79
2023/03/11 21:26:13;;;;;;;6.13;1.75;;;0.00;99.90;;;0.36;81.15;100302.66;5028062;28;20094;-79
2023/03/11 21:28:41;;;;;;;6.65;2.13;;;-0.10;99.90;;;0.32;80.79;100292.38;5025763;28;20462;-79
2023/03/11 21:31:22;;;;;;;4.25;1.85;;;-0.10;99.90;;;0.32;81.26;100303.13;5024832;28;20041;-78
2023/03/11 21:33:52;;;;;;;4.93;1.88;;;-0.10;99.90;;;0.32;80.99;100306.66;5025773;28;20026;-79
2023/03/11 21:36:18;;;;;;;5.20;2.15;;;-0.10;99.90;;;0.22;81.62;100300.53;5030297;28;20115;-79
2023/03/11 21:38:46;;;;;;;5.30;2.00;;;-0.10;99.90;;;0.26;82.49;100310.81;5031019;28;20472;-79
2023/03/11 21:41:14;;;;;;;8.20;1.83;;;-0.10;99.90;;;0.23;82.61;100318.31;5029724;28;20073;-78
2023/03/11 21:43:41;;;;;;;3.88;1.92;;;-0.20;99.90;;;0.20;82.38;100318.66;5028826;28;20358;-77
2023/03/11 21:46:11;;;;;;;4.15;1.88;;;-0.20;99.90;;;0.12;82.34;100306.88;5030093;28;20456;-78
2023/03/11 21:48:37;;;;;;;5.25;1.70;;;-0.20;99.90;;;0.16;81.44;100306.53;5029188;28;20034;-79
2023/03/11 21:51:04;;;;;;;5.00;1.80;;;-0.20;99.90;;;0.14;82.49;100307.53;5028963;28;20029;-78
2023/03/11 21:53:30;;;;;;;4.95;1.83;;;-0.20;99.90;;;0.17;82.66;100316.28;5030454;28;20107;-77
2023/03/11 21:55:57;;;;;;;5.88;1.83;;;-0.30;99.90;;;0.12;82.38;100300.63;5029709;28;20112;-77
2023/03/11 21:58:23;;;;;;;4.97;2.08;;;-0.30;99.90;;;0.02;83.45;100306.13;5012505;28;20041;-78
2023/03/11 22:00:49;;;;;;;5.72;2.40;;;-0.30;99.90;;;-0.03;83.79;100314.63;5024014;28;20048;-78
2023/03/11 22:03:15;;;;;;;7.50;2.13;;;-0.30;99.90;;;-0.05;83.90;100310.41;5029293;28;20047;-78
2023/03/11 22:05:41;;;;;;;4.55;1.80;;;-0.40;99.90;;;-0.08;83.73;100310.72;5028892;28;20037;-79
2023/03/11 22:08:08;;;;;;;5.20;1.88;;;-0.40;99.90;;;-0.04;83.92;100318.31;5044295;28;20045;-77
2023/03/11 22:10:33;;;;;;;6.78;1.83;;;-0.40;99.90;;;-0.05;83.53;100321.13;5029669;28;20424;-78
2023/03/11 22:12:59;;;;;;;6.75;2.38;;;-0.40;99.90;;;-0.06;82.48;100308.72;5027696;28;20087;-78
2023/03/11 22:15:25;;;;;;;3.90;1.67;;;-0.30;99.90;;;0.02;82.78;100316.84;5040663;28;20041;-79
2023/03/11 22:17:51;;;;;;;4.68;2.00;;;-0.30;99.90;;;-0.03;82.80;100305.72;5029098;28;20037;-77
2023/03/11 22:20:16;;;;;;;5.15;1.83;;;-0.30;99.90;;;0.03;82.37;100315.00;5027891;28;20056;-77
2023/03/11 22:22:42;;;;;;;6.43;1.75;;;-0.30;99.90;;;0.00;82.31;100308.13;5029260;28;20092;-77
2023/03/11 22:25:09;;;;;;;5.47;1.85;;;-0.30;99.90;;;0.10;81.49;100316.91;5029735;28;20451;-77
2023/03/11 22:27:34;;;;;;;4.70;1.60;;;-0.30;99.90;;;0.09;81.01;100309.88;5040789;28;20397;-77
2023/03/11 22:30:00;;;;;;;6.22;2.20;;;-0.30;99.90;;;0.03;80.61;100307.81;5045578;28;20036;-77
2023/03/11 22:32:26;;;;;;;5.72;1.70;;;-0.40;99.90;;;-0.16;79.86;100282.84;5028355;28;20057;-76
2023/03/11 22:34:52;;;;;;;4.22;2.03;;;-0.50;99.90;;;-0.03;80.76;100308.41;5028309;28;20041;-76
2023/03/11 22:37:17;;;;;;;5.10;2.00;;;-0.60;99.90;;;-0.02;80.50;100304.72;5027832;28;20045;-76
2023/03/11 22:39:43;;;;;;;5.50;1.88;;;-0.50;99.90;;;-0.02;80.08;100302.91;5029156;28;20033;-75
2023/03/11 22:42:09;;;;;;;4.45;1.65;;;-0.50;99.90;;;0.00;79.49;100305.44;5042432;28;20426;-76
2023/03/11 22:44:35;;;;;;;9.25;1.83;;;-0.50;99.90;;;0.05;79.50;100315.69;5017982;28;20044;-76
2023/03/11 22:47:00;;;;;;;5.80;1.77;;;-0.50;99.90;;;-0.03;80.07;100316.47;5042401;28;20044;-75
2023/03/11 22:49:26;;;;;;;6.13;2.20;;;-0.50;99.90;;;-0.17;81.31;100318.72;5035779;28;20473;-75
2023/03/11 22:51:53;;;;;;;5.72;2.63;;;-0.60;99.90;;;-0.17;81.52;100323.22;5036887;28;20037;-75
2023/03/11 22:54:19;;;;;;;7.68;2.58;;;-0.60;99.90;;;-0.15;81.44;100321.22;5028242;28;20116;-75
2023/03/11 22:56:44;;;;;;;5.53;1.92;;;-0.50;99.90;;;-0.01;80.37;100325.19;5028050;28;20043;-75
2023/03/11 22:59:10;;;;;;;6.25;2.55;;;-0.50;99.90;;;-0.08;79.97;100316.94;5028750;28;20528;-75
2023/03/11 23:01:36;;;;;;;6.60;2.60;;;-0.60;99.90;;;-0.18;79.97;100308.97;5024618;28;20084;-75
2023/03/11 23:04:01;;;;;;;6.13;2.40;;;-0.80;99.90;;;-0.28;80.78;100316.25;5028261;28;20044;-75
2023/03/11 23:06:27;;;;;;;7.05;2.10;;;-0.80;99.90;;;-0.32;81.77;100321.09;5030665;28;20079;-75
2023/03/11 23:08:53;;;;;;;5.68;2.08;;;-0.90;99.90;;;-0.45;82.32;100329.53;5032732;28;20388;-75
2023/03/11 23:11:20;;;;;;;6.38;2.45;;;-1.00;99.90;;;-0.50;82.72;100334.50;5014637;28;20041;-75
2023/03/11 23:13:48;;;;;;;5.18;2.15;;;-1.10;99.90;;;-0.51;82.76;100330.13;5031355;28;20038;-75
2023/03/11 23:16:18;;;;;;;6.38;1.80;;;-1.10;99.90;;;-0.52;82.67;100333.81;5044911;28;20045;-75
2023/03/11 23:18:46;;;;;;;4.10;1.88;;;-1.10;99.90;;;-0.48;82.48;100334.34;5046019;28;20504;-75
2023/03/11 23:21:18;;;;;;;;;;;-1.00;99.90;;;-0.46;83.29;100330.53;5042809;28;20125;-75
2023/03/11 23:23:45;;;;;;;6.53;1.88;;;-1.00;99.90;;;-0.45;83.22;100337.56;5032617;28;19917;-75
2023/03/11 23:26:12;;;;;;;12.37;2.20;;;-0.90;99.90;;;-0.43;84.27;100329.34;5031102;28;20060;-75
2023/03/11 23:28:40;;;;;;;3.80;1.67;;;-0.90;99.90;;;-0.42;85.12;100341.75;5031875;28;20488;-75
2023/03/11 23:31:12;;;;;;;4.20;1.65;;;-0.90;99.90;;;-0.50;84.96;100334.50;5032520;28;20037;-76
2023/03/11 23:33:39;;;;;;;3.50;1.90;;;-1.00;99.90;;;-0.51;85.07;100338.19;5046741;28;20132;-75
2023/03/11 23:36:11;;;;;;;8.48;2.03;;;-1.00;99.90;;;-0.53;86.09;100339.31;5045627;28;20131;-75
2023/03/11 23:38:38;;;;;;;8.07;2.30;;;-1.00;99.90;;;-0.56;86.45;100340.44;5031168;28;20030;-76
2023/03/11 23:41:14;;;;;;;5.13;1.70;;;-1.00;99.90;;;-0.60;86.05;100336.38;5050557;28;20034;-75
2023/03/11 23:43:41;;;;;;;4.78;1.90;;;-1.00;99.90;;;-0.59;86.77;100346.13;5031199;28;20057;-75
2023/03/11 23:46:08;;;;;;;5.53;1.83;;;-1.00;99.90;;;-0.62;87.41;100346.41;5032543;28;20124;-75
2023/03/11 23:48:36;;;;;;;6.60;2.65;;;-1.10;99.90;;;-0.65;87.98;100346.72;5030899;28;20127;-76
2023/03/11 23:51:03;;;;;;;4.45;2.03;;;-1.10;99.90;;;-0.69;88.22;100350.69;5032503;28;20037;-75
2023/03/11 23:53:32;;;;;;;11.15;2.53;;;-1.10;99.90;;;-0.75;89.21;100350.31;5031336;28;20496;-75
2023/03/11 23:55:58;;;;;;;7.32;2.42;;;-1.10;99.90;;;-0.77;89.07;100352.31;5031934;28;20029;-76
2023/03/11 23:58:23;;;;;;;3.25;1.85;;;-1.20;99.90;;;-0.77;88.41;100340.72;5030664;28;20064;-75
